sensor_id;sensor_type;location;lat;lon;timestamp;temperature;humidity
40808;DHT22;26523;52.504;13.498;2023-11-19T00:01:32;4.20;99.90
40808;DHT22;26523;52.504;13.498;2023-11-19T00:03:58;4.30;99.90
40808;DHT22;26523;52.504;13.498;2023-11-19T00:06:33;4.20;99.90
40808;DHT22;26523;52.504;13.498;2023-11-19T00:08:59;4.20;99.90
40808;DHT22;26523;52.504;13.498;2023-11-19T00:11:26;4.20;99.90
40808;DHT22;26523;52.504;13.498;2023-11-19T00:13:53;4.10;99.90
40808;DHT22;26523;52.504;13.498;2023-11-19T00:16:19;4.10;99.90
40808;DHT22;26523;52.504;13.498;2023-11-19T00:18:45;4.20;99.90
40808;DHT22;26523;52.504;13.498;2023-11-19T00:21:10;4.20;99.90
40808;DHT22;26523;52.504;13.498;2023-11-19T00:23:36;4.20;99.90
40808;DHT22;26523;52.504;13.498;2023-11-19T00:26:02;4.20;99.90
40808;DHT22;26523;52.504;13.498;2023-11-19T00:28:32;4.30;99.90
40808;DHT22;26523;52.504;13.498;2023-11-19T00:30:59;4.20;99.90
40808;DHT22;26523;52.504;13.498;2023-11-19T00:33:25;4.20;99.90
40808;DHT22;26523;52.504;13.498;2023-11-19T00:35:51;4.20;99.90
40808;DHT22;26523;52.504;13.498;2023-11-19T00:38:22;4.10;99.90
40808;DHT22;26523;52.504;13.498;2023-11-19T00:40:49;4.20;99.90
40808;DHT22;26523;52.504;13.498;2023-11-19T00:43:17;4.20;99.90
40808;DHT22;26523;52.504;13.498;2023-11-19T00:45:45;4.30;99.90
40808;DHT22;26523;52.504;13.498;2023-11-19T00:48:11;4.30;99.90
40808;DHT22;26523;52.504;13.498;2023-11-19T00:50:39;4.30;99.90
40808;DHT22;26523;52.504;13.498;2023-11-19T00:53:09;4.30;99.90
40808;DHT22;26523;52.504;13.498;2023-11-19T00:55:36;4.30;99.90
40808;DHT22;26523;52.504;13.498;2023-11-19T00:58:09;4.30;99.90
40808;DHT22;26523;52.504;13.498;2023-11-19T01:00:35;4.20;99.90
40808;DHT22;26523;52.504;13.498;2023-11-19T01:03:02;4.30;99.90
40808;DHT22;26523;52.504;13.498;2023-11-19T01:05:27;4.30;99.90
40808;DHT22;26523;52.504;13.498;2023-11-19T01:07:57;4.30;99.90
40808;DHT22;26523;52.504;13.498;2023-11-19T01:10:23;4.30;99.90
40808;DHT22;26523;52.504;13.498;2023-11-19T01:12:49;4.40;99.90
40808;DHT22;26523;52.504;13.498;2023-11-19T01:15:16;4.30;99.90
40808;DHT22;26523;52.504;13.498;2023-11-19T01:17:44;4.30;99.90
40808;DHT22;26523;52.504;13.498;2023-11-19T01:20:10;4.40;99.90
40808;DHT22;26523;52.504;13.498;2023-11-19T01:22:38;4.40;99.90
40808;DHT22;26523;52.504;13.498;2023-11-19T01:25:04;4.30;99.90
40808;DHT22;26523;52.504;13.498;2023-11-19T01:27:31;4.40;99.90
40808;DHT22;26523;52.504;13.498;2023-11-19T01:29:57;4.40;99.90
40808;DHT22;26523;52.504;13.498;2023-11-19T01:32:24;4.40;99.90
40808;DHT22;26523;52.504;13.498;2023-11-19T01:34:49;4.40;99.90
40808;DHT22;26523;52.504;13.498;2023-11-19T01:37:17;4.40;99.90
40808;DHT22;26523;52.504;13.498;2023-11-19T01:39:45;4.40;99.90
40808;DHT22;26523;52.504;13.498;2023-11-19T01:42:11;4.40;99.90
40808;DHT22;26523;52.504;13.498;2023-11-19T01:44:41;4.40;99.90
40808;DHT22;26523;52.504;13.498;2023-11-19T01:47:08;4.40;99.90
40808;DHT22;26523;52.504;13.498;2023-11-19T01:49:37;4.40;99.90
40808;DHT22;26523;52.504;13.498;2023-11-19T01:52:04;4.50;99.90
40808;DHT22;26523;52.504;13.498;2023-11-19T01:54:30;4.50;99.90
40808;DHT22;26523;52.504;13.498;2023-11-19T01:56:56;4.60;99.90
40808;DHT22;26523;52.504;13.498;2023-11-19T01:59:23;4.60;99.90
40808;DHT22;26523;52.504;13.498;2023-11-19T02:01:56;4.60;99.90
40808;DHT22;26523;52.504;13.498;2023-11-19T02:04:22;4.50;99.90
40808;DHT22;26523;52.504;13.498;2023-11-19T02:06:51;4.60;99.90
40808;DHT22;26523;52.504;13.498;2023-11-19T02:09:19;4.60;99.90
40808;DHT22;26523;52.504;13.498;2023-11-19T02:11:45;4.60;99.90
40808;DHT22;26523;52.504;13.498;2023-11-19T02:14:16;4.50;99.90
40808;DHT22;26523;52.504;13.498;2023-11-19T02:16:42;4.40;99.90
40808;DHT22;26523;52.504;13.498;2023-11-19T02:19:08;4.40;99.90
40808;DHT22;26523;52.504;13.498;2023-11-19T02:21:36;4.40;99.90
40808;DHT22;26523;52.504;13.498;2023-11-19T02:24:08;4.30;99.90
40808;DHT22;26523;52.504;13.498;2023-11-19T02:26:54;4.30;99.90
40808;DHT22;26523;52.504;13.498;2023-11-19T02:29:22;4.30;99.90
40808;DHT22;26523;52.504;13.498;2023-11-19T02:31:50;4.30;99.90
40808;DHT22;26523;52.504;13.498;2023-11-19T02:34:15;4.40;99.90
40808;DHT22;26523;52.504;13.498;2023-11-19T02:36:41;4.40;99.90
40808;DHT22;26523;52.504;13.498;2023-11-19T02:39:08;4.40;99.90
40808;DHT22;26523;52.504;13.498;2023-11-19T02:41:37;4.50;99.90
40808;DHT22;26523;52.504;13.498;2023-11-19T02:44:06;4.50;99.90
40808;DHT22;26523;52.504;13.498;2023-11-19T02:46:31;4.50;99.90
40808;DHT22;26523;52.504;13.498;2023-11-19T02:48:58;4.40;99.90
40808;DHT22;26523;52.504;13.498;2023-11-19T02:51:24;4.50;99.90
40808;DHT22;26523;52.504;13.498;2023-11-19T02:53:51;4.50;99.90
40808;DHT22;26523;52.504;13.498;2023-11-19T02:56:17;4.50;99.90
40808;DHT22;26523;52.504;13.498;2023-11-19T02:58:54;4.50;99.90
40808;DHT22;26523;52.504;13.498;2023-11-19T03:01:24;4.50;99.90
40808;DHT22;26523;52.504;13.498;2023-11-19T03:03:58;4.60;99.90
40808;DHT22;26523;52.504;13.498;2023-11-19T03:06:24;4.60;99.90
40808;DHT22;26523;52.504;13.498;2023-11-19T03:08:51;4.60;99.90
40808;DHT22;26523;52.504;13.498;2023-11-19T03:11:18;4.60;99.90
40808;DHT22;26523;52.504;13.498;2023-11-19T03:13:45;4.70;99.90
40808;DHT22;26523;52.504;13.498;2023-11-19T03:16:12;4.70;99.90
40808;DHT22;26523;52.504;13.498;2023-11-19T03:18:38;4.70;99.90
40808;DHT22;26523;52.504;13.498;2023-11-19T03:21:08;4.80;99.90
40808;DHT22;26523;52.504;13.498;2023-11-19T03:23:34;4.70;99.90
40808;DHT22;26523;52.504;13.498;2023-11-19T03:26:00;4.70;99.90
40808;DHT22;26523;52.504;13.498;2023-11-19T03:28:29;4.80;99.90
40808;DHT22;26523;52.504;13.498;2023-11-19T03:30:54;4.80;99.90
40808;DHT22;26523;52.504;13.498;2023-11-19T03:33:20;4.80;99.90
40808;DHT22;26523;52.504;13.498;2023-11-19T03:35:46;4.90;99.90
40808;DHT22;26523;52.504;13.498;2023-11-19T03:38:12;4.90;99.90
40808;DHT22;26523;52.504;13.498;2023-11-19T03:40:39;4.90;99.90
40808;DHT22;26523;52.504;13.498;2023-11-19T03:43:06;4.90;99.90
40808;DHT22;26523;52.504;13.498;2023-11-19T03:45:32;4.80;99.90
40808;DHT22;26523;52.504;13.498;2023-11-19T03:47:58;4.80;99.90
40808;DHT22;26523;52.504;13.498;2023-11-19T03:50:23;4.60;99.90
40808;DHT22;26523;52.504;13.498;2023-11-19T03:52:49;4.50;99.90
40808;DHT22;26523;52.504;13.498;2023-11-19T03:55:15;4.40;99.90
40808;DHT22;26523;52.504;13.498;2023-11-19T03:57:42;4.30;99.90
40808;DHT22;26523;52.504;13.498;2023-11-19T04:00:09;4.10;99.90
40808;DHT22;26523;52.504;13.498;2023-11-19T04:02:39;4.10;99.90
40808;DHT22;26523;52.504;13.498;2023-11-19T04:05:05;4.00;99.90
40808;DHT22;26523;52.504;13.498;2023-11-19T04:07:31;3.90;99.90
40808;DHT22;26523;52.504;13.498;2023-11-19T04:09:57;3.90;99.90
40808;DHT22;26523;52.504;13.498;2023-11-19T04:12:24;3.80;99.90
40808;DHT22;26523;52.504;13.498;2023-11-19T04:14:50;3.80;99.90
40808;DHT22;26523;52.504;13.498;2023-11-19T04:17:16;3.80;99.90
40808;DHT22;26523;52.504;13.498;2023-11-19T04:19:43;3.70;99.90
40808;DHT22;26523;52.504;13.498;2023-11-19T04:22:10;3.80;99.90
40808;DHT22;26523;52.504;13.498;2023-11-19T04:24:36;3.70;99.90
40808;DHT22;26523;52.504;13.498;2023-11-19T04:27:02;3.70;99.90
40808;DHT22;26523;52.504;13.498;2023-11-19T04:29:30;3.70;99.90
40808;DHT22;26523;52.504;13.498;2023-11-19T04:31:56;3.70;99.90
40808;DHT22;26523;52.504;13.498;2023-11-19T04:34:23;3.70;99.90
40808;DHT22;26523;52.504;13.498;2023-11-19T04:36:49;3.70;99.90
40808;DHT22;26523;52.504;13.498;2023-11-19T04:39:14;3.70;99.90
40808;DHT22;26523;52.504;13.498;2023-11-19T04:41:51;3.70;99.90
40808;DHT22;26523;52.504;13.498;2023-11-19T04:44:19;3.70;99.90
40808;DHT22;26523;52.504;13.498;2023-11-19T04:46:45;3.70;99.90
40808;DHT22;26523;52.504;13.498;2023-11-19T04:49:12;3.70;99.90
40808;DHT22;26523;52.504;13.498;2023-11-19T04:51:41;3.70;99.90
40808;DHT22;26523;52.504;13.498;2023-11-19T04:54:11;3.70;99.90
40808;DHT22;26523;52.504;13.498;2023-11-19T04:56:37;3.70;99.90
40808;DHT22;26523;52.504;13.498;2023-11-19T04:59:04;3.70;99.90
40808;DHT22;26523;52.504;13.498;2023-11-19T05:01:32;3.80;99.90
40808;DHT22;26523;52.504;13.498;2023-11-19T05:03:58;3.80;99.90
40808;DHT22;26523;52.504;13.498;2023-11-19T05:06:30;3.80;99.90
40808;DHT22;26523;52.504;13.498;2023-11-19T05:08:58;3.80;99.90
40808;DHT22;26523;52.504;13.498;2023-11-19T05:11:24;3.80;99.90
40808;DHT22;26523;52.504;13.498;2023-11-19T05:13:49;3.70;99.90
40808;DHT22;26523;52.504;13.498;2023-11-19T05:16:16;3.70;99.90
40808;DHT22;26523;52.504;13.498;2023-11-19T05:18:43;3.70;99.90
40808;DHT22;26523;52.504;13.498;2023-11-19T05:21:08;3.70;99.90
40808;DHT22;26523;52.504;13.498;2023-11-19T05:23:34;3.70;99.90
40808;DHT22;26523;52.504;13.498;2023-11-19T05:26:03;3.70;99.90
40808;DHT22;26523;52.504;13.498;2023-11-19T05:28:29;3.70;99.90
40808;DHT22;26523;52.504;13.498;2023-11-19T05:30:55;3.80;99.90
40808;DHT22;26523;52.504;13.498;2023-11-19T05:33:23;3.70;99.90
40808;DHT22;26523;52.504;13.498;2023-11-19T05:35:50;3.70;99.90
40808;DHT22;26523;52.504;13.498;2023-11-19T05:38:15;3.70;99.90
40808;DHT22;26523;52.504;13.498;2023-11-19T05:40:42;3.70;99.90
40808;DHT22;26523;52.504;13.498;2023-11-19T05:43:07;3.70;99.90
40808;DHT22;26523;52.504;13.498;2023-11-19T05:45:33;3.80;99.90
40808;DHT22;26523;52.504;13.498;2023-11-19T05:47:59;3.80;99.90
40808;DHT22;26523;52.504;13.498;2023-11-19T05:50:24;3.80;99.90
40808;DHT22;26523;52.504;13.498;2023-11-19T05:52:50;3.90;99.90
40808;DHT22;26523;52.504;13.498;2023-11-19T05:55:18;3.90;99.90
40808;DHT22;26523;52.504;13.498;2023-11-19T05:57:44;3.80;99.90
40808;DHT22;26523;52.504;13.498;2023-11-19T06:00:11;3.80;99.90
40808;DHT22;26523;52.504;13.498;2023-11-19T06:02:38;3.80;99.90
40808;DHT22;26523;52.504;13.498;2023-11-19T06:05:05;3.70;99.90
40808;DHT22;26523;52.504;13.498;2023-11-19T06:07:35;3.80;99.90
40808;DHT22;26523;52.504;13.498;2023-11-19T06:10:02;3.80;99.90
40808;DHT22;26523;52.504;13.498;2023-11-19T06:12:30;3.80;99.90
40808;DHT22;26523;52.504;13.498;2023-11-19T06:14:57;3.80;99.90
40808;DHT22;26523;52.504;13.498;2023-11-19T06:17:23;3.90;99.90
40808;DHT22;26523;52.504;13.498;2023-11-19T06:19:48;3.80;99.90
40808;DHT22;26523;52.504;13.498;2023-11-19T06:22:14;3.90;99.90
40808;DHT22;26523;52.504;13.498;2023-11-19T06:24:40;3.90;99.90
40808;DHT22;26523;52.504;13.498;2023-11-19T06:27:06;3.90;99.90
40808;DHT22;26523;52.504;13.498;2023-11-19T06:29:32;3.90;99.90
40808;DHT22;26523;52.504;13.498;2023-11-19T06:31:57;3.90;99.90
40808;DHT22;26523;52.504;13.498;2023-11-19T06:34:23;3.80;99.90
40808;DHT22;26523;52.504;13.498;2023-11-19T06:36:54;3.90;99.90
40808;DHT22;26523;52.504;13.498;2023-11-19T06:39:20;3.90;99.90
40808;DHT22;26523;52.504;13.498;2023-11-19T06:41:47;4.00;99.90
40808;DHT22;26523;52.504;13.498;2023-11-19T06:44:13;3.90;99.90
40808;DHT22;26523;52.504;13.498;2023-11-19T06:46:39;4.00;99.90
40808;DHT22;26523;52.504;13.498;2023-11-19T06:49:08;4.00;99.90
40808;DHT22;26523;52.504;13.498;2023-11-19T06:51:35;4.10;99.90
40808;DHT22;26523;52.504;13.498;2023-11-19T06:54:01;4.00;99.90
40808;DHT22;26523;52.504;13.498;2023-11-19T06:56:27;4.00;99.90
40808;DHT22;26523;52.504;13.498;2023-11-19T06:58:55;4.00;99.90
40808;DHT22;26523;52.504;13.498;2023-11-19T07:01:20;4.00;99.90
40808;DHT22;26523;52.504;13.498;2023-11-19T07:03:46;4.10;99.90
40808;DHT22;26523;52.504;13.498;2023-11-19T07:06:12;4.10;99.90
40808;DHT22;26523;52.504;13.498;2023-11-19T07:08:43;4.10;99.90
40808;DHT22;26523;52.504;13.498;2023-11-19T07:11:13;4.10;99.90
40808;DHT22;26523;52.504;13.498;2023-11-19T07:13:42;4.20;99.90
40808;DHT22;26523;52.504;13.498;2023-11-19T07:16:08;4.20;99.90
40808;DHT22;26523;52.504;13.498;2023-11-19T07:18:35;4.20;99.90
40808;DHT22;26523;52.504;13.498;2023-11-19T07:21:01;4.20;99.90
40808;DHT22;26523;52.504;13.498;2023-11-19T07:23:32;4.20;99.90
40808;DHT22;26523;52.504;13.498;2023-11-19T07:26:01;4.30;99.90
40808;DHT22;26523;52.504;13.498;2023-11-19T07:28:27;4.30;99.90
40808;DHT22;26523;52.504;13.498;2023-11-19T07:30:54;4.30;99.90
40808;DHT22;26523;52.504;13.498;2023-11-19T07:33:21;4.40;99.90
40808;DHT22;26523;52.504;13.498;2023-11-19T07:35:48;4.40;99.90
40808;DHT22;26523;52.504;13.498;2023-11-19T07:38:15;4.40;99.90
40808;DHT22;26523;52.504;13.498;2023-11-19T07:40:41;4.40;99.90
40808;DHT22;26523;52.504;13.498;2023-11-19T07:43:07;4.50;99.90
40808;DHT22;26523;52.504;13.498;2023-11-19T07:45:32;4.50;99.90
40808;DHT22;26523;52.504;13.498;2023-11-19T07:48:00;4.50;99.90
40808;DHT22;26523;52.504;13.498;2023-11-19T07:50:26;4.50;99.90
40808;DHT22;26523;52.504;13.498;2023-11-19T07:52:54;4.50;99.90
40808;DHT22;26523;52.504;13.498;2023-11-19T07:55:19;4.50;99.90
40808;DHT22;26523;52.504;13.498;2023-11-19T07:57:45;4.50;99.90
40808;DHT22;26523;52.504;13.498;2023-11-19T08:00:11;4.60;99.90
40808;DHT22;26523;52.504;13.498;2023-11-19T08:02:38;4.60;99.90
40808;DHT22;26523;52.504;13.498;2023-11-19T08:05:04;4.70;99.90
40808;DHT22;26523;52.504;13.498;2023-11-19T08:07:30;4.70;99.90
40808;DHT22;26523;52.504;13.498;2023-11-19T08:09:55;4.70;99.90
40808;DHT22;26523;52.504;13.498;2023-11-19T08:12:21;4.80;99.90
40808;DHT22;26523;52.504;13.498;2023-11-19T08:14:48;4.70;99.90
40808;DHT22;26523;52.504;13.498;2023-11-19T08:17:14;4.80;99.90
40808;DHT22;26523;52.504;13.498;2023-11-19T08:19:41;4.80;99.90
40808;DHT22;26523;52.504;13.498;2023-11-19T08:22:07;4.80;99.90
40808;DHT22;26523;52.504;13.498;2023-11-19T08:24:35;4.90;99.90
40808;DHT22;26523;52.504;13.498;2023-11-19T08:27:00;4.90;99.90
40808;DHT22;26523;52.504;13.498;2023-11-19T08:29:26;4.90;99.90
40808;DHT22;26523;52.504;13.498;2023-11-19T08:31:53;4.90;99.90
40808;DHT22;26523;52.504;13.498;2023-11-19T08:34:20;4.90;99.90
40808;DHT22;26523;52.504;13.498;2023-11-19T08:36:45;5.00;99.90
40808;DHT22;26523;52.504;13.498;2023-11-19T08:39:11;5.00;99.90
40808;DHT22;26523;52.504;13.498;2023-11-19T08:41:40;5.10;99.90
40808;DHT22;26523;52.504;13.498;2023-11-19T08:44:07;5.10;99.90
40808;DHT22;26523;52.504;13.498;2023-11-19T08:46:33;5.10;99.90
40808;DHT22;26523;52.504;13.498;2023-11-19T08:48:59;5.20;99.90
40808;DHT22;26523;52.504;13.498;2023-11-19T08:51:25;5.20;99.90
40808;DHT22;26523;52.504;13.498;2023-11-19T08:53:51;5.30;99.90
40808;DHT22;26523;52.504;13.498;2023-11-19T08:56:17;5.30;99.90
40808;DHT22;26523;52.504;13.498;2023-11-19T08:58:43;5.40;99.90
40808;DHT22;26523;52.504;13.498;2023-11-19T09:01:10;5.50;99.90
40808;DHT22;26523;52.504;13.498;2023-11-19T09:03:35;5.60;99.90
40808;DHT22;26523;52.504;13.498;2023-11-19T09:06:03;5.70;99.90
40808;DHT22;26523;52.504;13.498;2023-11-19T09:08:29;5.70;99.90
40808;DHT22;26523;52.504;13.498;2023-11-19T09:10:55;5.80;99.90
40808;DHT22;26523;52.504;13.498;2023-11-19T09:13:21;5.80;99.90
40808;DHT22;26523;52.504;13.498;2023-11-19T09:15:46;5.90;99.90
40808;DHT22;26523;52.504;13.498;2023-11-19T09:18:12;6.00;99.90
40808;DHT22;26523;52.504;13.498;2023-11-19T09:20:38;6.00;99.90
40808;DHT22;26523;52.504;13.498;2023-11-19T09:23:05;5.90;99.90
40808;DHT22;26523;52.504;13.498;2023-11-19T09:25:31;5.90;99.90
40808;DHT22;26523;52.504;13.498;2023-11-19T09:27:56;6.00;99.90
40808;DHT22;26523;52.504;13.498;2023-11-19T09:30:22;6.20;99.90
40808;DHT22;26523;52.504;13.498;2023-11-19T09:32:48;6.20;99.90
40808;DHT22;26523;52.504;13.498;2023-11-19T09:35:14;6.40;99.90
40808;DHT22;26523;52.504;13.498;2023-11-19T09:37:42;6.40;99.90
40808;DHT22;26523;52.504;13.498;2023-11-19T09:40:10;6.60;99.90
40808;DHT22;26523;52.504;13.498;2023-11-19T09:42:47;6.70;99.90
40808;DHT22;26523;52.504;13.498;2023-11-19T09:45:15;6.80;99.90
40808;DHT22;26523;52.504;13.498;2023-11-19T09:47:45;7.00;99.90
40808;DHT22;26523;52.504;13.498;2023-11-19T09:50:17;7.20;99.90
40808;DHT22;26523;52.504;13.498;2023-11-19T09:52:46;7.30;99.90
40808;DHT22;26523;52.504;13.498;2023-11-19T09:55:12;7.40;99.90
40808;DHT22;26523;52.504;13.498;2023-11-19T09:57:41;7.40;99.90
40808;DHT22;26523;52.504;13.498;2023-11-19T10:00:10;7.50;99.90
40808;DHT22;26523;52.504;13.498;2023-11-19T10:02:39;7.70;99.90
40808;DHT22;26523;52.504;13.498;2023-11-19T10:05:09;8.00;99.90
40808;DHT22;26523;52.504;13.498;2023-11-19T10:07:40;8.20;99.90
40808;DHT22;26523;52.504;13.498;2023-11-19T10:10:06;8.40;99.90
40808;DHT22;26523;52.504;13.498;2023-11-19T10:12:33;8.50;99.90
40808;DHT22;26523;52.504;13.498;2023-11-19T10:14:59;8.50;99.90
40808;DHT22;26523;52.504;13.498;2023-11-19T10:17:42;8.50;99.90
40808;DHT22;26523;52.504;13.498;2023-11-19T10:20:09;8.50;99.90
40808;DHT22;26523;52.504;13.498;2023-11-19T10:22:37;8.40;99.90
40808;DHT22;26523;52.504;13.498;2023-11-19T10:25:04;8.50;99.90
40808;DHT22;26523;52.504;13.498;2023-11-19T10:27:30;8.30;99.90
40808;DHT22;26523;52.504;13.498;2023-11-19T10:30:00;8.30;99.90
40808;DHT22;26523;52.504;13.498;2023-11-19T10:32:26;8.40;99.90
40808;DHT22;26523;52.504;13.498;2023-11-19T10:34:52;8.40;99.90
40808;DHT22;26523;52.504;13.498;2023-11-19T10:37:30;8.40;99.90
40808;DHT22;26523;52.504;13.498;2023-11-19T10:39:58;8.50;99.90
40808;DHT22;26523;52.504;13.498;2023-11-19T10:42:30;8.60;99.90
40808;DHT22;26523;52.504;13.498;2023-11-19T10:44:56;8.60;99.90
40808;DHT22;26523;52.504;13.498;2023-11-19T10:47:23;8.60;99.90
40808;DHT22;26523;52.504;13.498;2023-11-19T10:49:49;8.70;99.90
40808;DHT22;26523;52.504;13.498;2023-11-19T10:52:18;8.90;99.90
40808;DHT22;26523;52.504;13.498;2023-11-19T10:54:49;9.10;99.90
40808;DHT22;26523;52.504;13.498;2023-11-19T10:57:25;9.30;99.90
40808;DHT22;26523;52.504;13.498;2023-11-19T11:00:01;9.40;99.90
40808;DHT22;26523;52.504;13.498;2023-11-19T11:02:27;9.60;99.90
40808;DHT22;26523;52.504;13.498;2023-11-19T11:04:55;9.70;99.90
40808;DHT22;26523;52.504;13.498;2023-11-19T11:07:22;9.70;99.90
40808;DHT22;26523;52.504;13.498;2023-11-19T11:09:51;9.80;99.90
40808;DHT22;26523;52.504;13.498;2023-11-19T11:12:17;9.80;99.90
40808;DHT22;26523;52.504;13.498;2023-11-19T11:14:48;9.80;99.90
40808;DHT22;26523;52.504;13.498;2023-11-19T11:17:17;9.60;99.90
40808;DHT22;26523;52.504;13.498;2023-11-19T11:19:43;9.60;99.90
40808;DHT22;26523;52.504;13.498;2023-11-19T11:22:09;9.40;99.90
40808;DHT22;26523;52.504;13.498;2023-11-19T11:25:49;9.40;99.90
40808;DHT22;26523;52.504;13.498;2023-11-19T11:28:21;9.30;99.90
40808;DHT22;26523;52.504;13.498;2023-11-19T11:31:21;9.30;99.90
40808;DHT22;26523;52.504;13.498;2023-11-19T11:39:14;9.20;99.90
40808;DHT22;26523;52.504;13.498;2023-11-19T11:41:41;9.30;99.90
40808;DHT22;26523;52.504;13.498;2023-11-19T11:44:07;9.30;99.90
40808;DHT22;26523;52.504;13.498;2023-11-19T11:49:03;9.40;99.90
40808;DHT22;26523;52.504;13.498;2023-11-19T11:51:58;9.50;99.90
40808;DHT22;26523;52.504;13.498;2023-11-19T11:57:12;9.80;99.90
40808;DHT22;26523;52.504;13.498;2023-11-19T12:02:09;10.00;99.90
40808;DHT22;26523;52.504;13.498;2023-11-19T12:04:35;10.10;99.90
40808;DHT22;26523;52.504;13.498;2023-11-19T12:07:14;10.10;99.90
40808;DHT22;26523;52.504;13.498;2023-11-19T12:09:46;10.20;99.90
40808;DHT22;26523;52.504;13.498;2023-11-19T12:12:21;10.20;99.90
40808;DHT22;26523;52.504;13.498;2023-11-19T12:20:01;10.10;99.90
40808;DHT22;26523;52.504;13.498;2023-11-19T12:22:27;10.10;99.90
40808;DHT22;26523;52.504;13.498;2023-11-19T12:24:54;10.00;99.90
40808;DHT22;26523;52.504;13.498;2023-11-19T12:27:20;10.00;99.90
40808;DHT22;26523;52.504;13.498;2023-11-19T12:29:49;9.90;99.90
40808;DHT22;26523;52.504;13.498;2023-11-19T12:32:15;10.00;99.90
40808;DHT22;26523;52.504;13.498;2023-11-19T12:34:44;10.00;99.90
40808;DHT22;26523;52.504;13.498;2023-11-19T12:37:10;10.00;99.90
40808;DHT22;26523;52.504;13.498;2023-11-19T12:39:44;10.10;99.90
40808;DHT22;26523;52.504;13.498;2023-11-19T12:42:14;9.90;99.90
40808;DHT22;26523;52.504;13.498;2023-11-19T12:44:55;9.90;99.90
40808;DHT22;26523;52.504;13.498;2023-11-19T12:47:22;9.80;99.90
40808;DHT22;26523;52.504;13.498;2023-11-19T12:49:57;9.80;99.90
40808;DHT22;26523;52.504;13.498;2023-11-19T12:52:23;9.80;99.90
40808;DHT22;26523;52.504;13.498;2023-11-19T12:54:49;9.80;99.90
40808;DHT22;26523;52.504;13.498;2023-11-19T12:57:15;9.80;99.90
40808;DHT22;26523;52.504;13.498;2023-11-19T12:59:59;9.80;99.90
40808;DHT22;26523;52.504;13.498;2023-11-19T13:02:48;9.80;99.90
40808;DHT22;26523;52.504;13.498;2023-11-19T13:05:33;9.90;99.90
40808;DHT22;26523;52.504;13.498;2023-11-19T13:08:05;9.90;99.90
40808;DHT22;26523;52.504;13.498;2023-11-19T13:10:33;9.90;99.90
40808;DHT22;26523;52.504;13.498;2023-11-19T13:13:07;9.70;99.90
40808;DHT22;26523;52.504;13.498;2023-11-19T13:15:35;9.60;99.90
40808;DHT22;26523;52.504;13.498;2023-11-19T13:18:01;9.60;99.90
40808;DHT22;26523;52.504;13.498;2023-11-19T13:20:28;9.60;99.90
40808;DHT22;26523;52.504;13.498;2023-11-19T13:23:04;9.60;99.90
40808;DHT22;26523;52.504;13.498;2023-11-19T13:25:31;9.50;99.90
40808;DHT22;26523;52.504;13.498;2023-11-19T13:27:58;9.60;99.90
40808;DHT22;26523;52.504;13.498;2023-11-19T13:30:25;9.50;99.90
40808;DHT22;26523;52.504;13.498;2023-11-19T13:32:52;9.60;99.90
40808;DHT22;26523;52.504;13.498;2023-11-19T13:35:18;9.50;99.90
40808;DHT22;26523;52.504;13.498;2023-11-19T13:37:45;9.50;99.90
40808;DHT22;26523;52.504;13.498;2023-11-19T13:40:12;9.40;99.90
40808;DHT22;26523;52.504;13.498;2023-11-19T13:42:42;9.40;99.90
40808;DHT22;26523;52.504;13.498;2023-11-19T13:45:12;9.40;99.90
40808;DHT22;26523;52.504;13.498;2023-11-19T13:47:45;9.40;99.90
40808;DHT22;26523;52.504;13.498;2023-11-19T13:50:14;9.50;99.90
40808;DHT22;26523;52.504;13.498;2023-11-19T13:52:41;9.50;99.90
40808;DHT22;26523;52.504;13.498;2023-11-19T13:55:09;9.60;99.90
40808;DHT22;26523;52.504;13.498;2023-11-19T13:57:36;9.60;99.90
40808;DHT22;26523;52.504;13.498;2023-11-19T14:00:06;9.70;99.90
40808;DHT22;26523;52.504;13.498;2023-11-19T14:02:36;9.80;99.90
40808;DHT22;26523;52.504;13.498;2023-11-19T14:05:02;9.80;99.90
40808;DHT22;26523;52.504;13.498;2023-11-19T14:07:31;9.80;99.90
40808;DHT22;26523;52.504;13.498;2023-11-19T14:09:56;9.90;99.90
40808;DHT22;26523;52.504;13.498;2023-11-19T14:12:22;9.90;99.90
40808;DHT22;26523;52.504;13.498;2023-11-19T14:14:48;9.90;99.90
40808;DHT22;26523;52.504;13.498;2023-11-19T14:17:13;9.80;99.90
40808;DHT22;26523;52.504;13.498;2023-11-19T14:19:43;9.80;99.90
40808;DHT22;26523;52.504;13.498;2023-11-19T14:22:24;9.80;99.90
40808;DHT22;26523;52.504;13.498;2023-11-19T14:24:51;9.80;99.90
40808;DHT22;26523;52.504;13.498;2023-11-19T14:27:17;9.80;99.90
40808;DHT22;26523;52.504;13.498;2023-11-19T14:29:44;9.80;99.90
40808;DHT22;26523;52.504;13.498;2023-11-19T14:32:10;9.80;99.90
40808;DHT22;26523;52.504;13.498;2023-11-19T14:34:36;9.80;99.90
40808;DHT22;26523;52.504;13.498;2023-11-19T14:37:02;9.80;99.90
40808;DHT22;26523;52.504;13.498;2023-11-19T14:39:29;9.70;99.90
40808;DHT22;26523;52.504;13.498;2023-11-19T14:41:59;9.70;99.90
40808;DHT22;26523;52.504;13.498;2023-11-19T14:44:29;9.70;99.90
40808;DHT22;26523;52.504;13.498;2023-11-19T14:46:55;9.70;99.90
40808;DHT22;26523;52.504;13.498;2023-11-19T14:49:21;9.70;99.90
40808;DHT22;26523;52.504;13.498;2023-11-19T14:51:47;9.70;99.90
40808;DHT22;26523;52.504;13.498;2023-11-19T14:54:13;9.60;99.90
40808;DHT22;26523;52.504;13.498;2023-11-19T14:56:42;9.70;99.90
40808;DHT22;26523;52.504;13.498;2023-11-19T14:59:09;9.60;99.90
40808;DHT22;26523;52.504;13.498;2023-11-19T15:01:36;9.60;99.90
40808;DHT22;26523;52.504;13.498;2023-11-19T15:04:02;9.60;99.90
40808;DHT22;26523;52.504;13.498;2023-11-19T15:06:29;9.60;99.90
40808;DHT22;26523;52.504;13.498;2023-11-19T15:08:56;9.60;99.90
40808;DHT22;26523;52.504;13.498;2023-11-19T15:11:22;9.60;99.90
40808;DHT22;26523;52.504;13.498;2023-11-19T15:13:49;9.50;99.90
40808;DHT22;26523;52.504;13.498;2023-11-19T15:16:15;9.50;99.90
40808;DHT22;26523;52.504;13.498;2023-11-19T15:18:43;9.50;99.90
40808;DHT22;26523;52.504;13.498;2023-11-19T15:21:08;9.60;99.90
40808;DHT22;26523;52.504;13.498;2023-11-19T15:23:34;9.50;99.90
40808;DHT22;26523;52.504;13.498;2023-11-19T15:26:03;9.50;99.90
40808;DHT22;26523;52.504;13.498;2023-11-19T15:28:32;9.50;99.90
40808;DHT22;26523;52.504;13.498;2023-11-19T15:31:01;9.50;99.90
40808;DHT22;26523;52.504;13.498;2023-11-19T15:33:28;9.50;99.90
40808;DHT22;26523;52.504;13.498;2023-11-19T15:35:54;9.50;99.90
40808;DHT22;26523;52.504;13.498;2023-11-19T15:38:20;9.50;99.90
40808;DHT22;26523;52.504;13.498;2023-11-19T15:40:48;9.50;99.90
40808;DHT22;26523;52.504;13.498;2023-11-19T15:43:17;9.40;99.90
40808;DHT22;26523;52.504;13.498;2023-11-19T15:45:47;9.40;99.90
40808;DHT22;26523;52.504;13.498;2023-11-19T15:48:13;9.50;99.90
40808;DHT22;26523;52.504;13.498;2023-11-19T15:50:39;9.40;99.90
40808;DHT22;26523;52.504;13.498;2023-11-19T15:53:06;9.40;99.90